Time;durP1;ratioP1;P1;durP2;ratioP2;P2;SDS_P1;SDS_P2;PMS_P1;PMS_P2;Temp;Humidity;BMP_temperature;BMP_pressure;BME280_temperature;BME280_humidity;BME280_pressure;Samples;Min_cycle;Max_cycle;Signal;HPM_P1;HPM_P2
2022/04/03 07:59:13;;;;;;;8.00;6.95;;;;;;;2.44;70.97;102280.78;5301471;27;20402;-74
2022/04/03 08:01:44;;;;;;;8.88;6.40;;;;;;;2.47;71.34;102280.38;5301576;28;20044;-73
2022/04/03 08:04:16;;;;;;;6.90;6.13;;;;;;;2.67;71.18;102282.41;5299951;28;20043;-73
2022/04/03 08:06:47;;;;;;;9.73;6.25;;;;;;;2.70;69.88;102279.25;5300983;28;20035;-74
2022/04/03 08:09:20;;;;;;;8.35;6.05;;;;;;;2.74;69.15;102280.56;5296262;28;20021;-73
2022/04/03 08:11:51;;;;;;;6.10;5.50;;;;;;;2.86;68.71;102283.56;5288883;28;20361;-73
2022/04/03 08:14:23;;;;;;;6.28;5.18;;;;;;;2.96;67.86;102282.13;5301090;28;20040;-74
2022/04/03 08:16:54;;;;;;;7.43;5.20;;;;;;;3.12;66.71;102285.56;5300089;28;20024;-73
2022/04/03 08:19:25;;;;;;;11.13;6.28;;;;;;;3.25;65.50;102285.63;5300549;28;20017;-75
2022/04/03 08:21:57;;;;;;;6.65;3.95;;;;;;;3.34;64.49;102292.59;5293286;28;20036;-73
2022/04/03 08:24:28;;;;;;;4.82;2.85;;;;;;;3.35;61.48;102294.31;5279080;28;20044;-73
2022/04/03 08:26:59;;;;;;;4.05;2.70;;;;;;;3.41;61.09;102290.72;5289657;28;20055;-74
2022/04/03 08:29:30;;;;;;;5.57;2.92;;;;;;;3.46;60.32;102290.97;5295987;28;20078;-73
2022/04/03 08:32:03;;;;;;;6.32;2.83;;;;;;;3.55;61.25;102296.25;5299788;28;20494;-74
2022/04/03 08:34:34;;;;;;;4.40;2.60;;;;;;;3.66;62.02;102292.91;5300541;28;20063;-72
2022/04/03 08:37:06;;;;;;;4.65;2.30;;;;;;;3.66;60.50;102307.47;5300268;28;20118;-74
2022/04/03 08:39:37;;;;;;;3.17;2.38;;;;;;;3.69;60.58;102303.47;5299271;28;20024;-74
2022/04/03 08:42:10;;;;;;;5.05;2.92;;;;;;;3.70;61.28;102300.50;5300049;28;20052;-73
2022/04/03 08:44:42;;;;;;;3.10;2.35;;;;;;;3.73;61.24;102291.00;5283751;28;20083;-72
2022/04/03 08:47:17;;;;;;;6.07;2.72;;;;;;;3.97;60.57;102294.22;5299685;28;20028;-74
2022/04/03 08:49:48;;;;;;;4.47;2.42;;;;;;;4.09;59.09;102292.50;5300574;28;20379;-72
2022/04/03 08:52:20;;;;;;;2.67;2.30;;;;;;;4.15;59.30;102294.44;5299021;28;20035;-73
2022/04/03 08:54:51;;;;;;;3.08;2.53;;;;;;;4.21;59.49;102299.06;5300024;28;20066;-73
2022/04/03 08:57:24;;;;;;;4.85;3.03;;;;;;;4.23;59.81;102293.38;5298937;28;20075;-74
2022/04/03 08:59:55;;;;;;;5.57;2.97;;;;;;;4.31;59.12;102304.13;5298302;28;20431;-74
2022/04/03 09:02:27;;;;;;;4.50;2.80;;;;;;;4.41;59.28;102303.69;5292472;28;20076;-70
2022/04/03 09:04:59;;;;;;;7.55;4.57;;;;;;;4.56;59.40;102302.41;5288991;28;20029;-69
2022/04/03 09:07:30;;;;;;;5.25;2.92;;;;;;;4.62;58.63;102297.94;5299498;28;20077;-69
2022/04/03 09:10:10;;;;;;;4.53;3.22;;;;;;;4.75;58.89;102305.31;5287063;28;20029;-69
2022/04/03 09:12:43;;;;;;;4.20;2.50;;;;;;;4.72;58.48;102294.75;5264089;28;20079;-73
2022/04/03 09:15:18;;;;;;;5.38;2.50;;;;;;;4.74;58.42;102292.66;5264673;28;20029;-74
2022/04/03 09:17:55;;;;;;;7.05;3.30;;;;;;;4.93;59.06;102294.47;5272149;28;20490;-73
2022/04/03 09:20:30;;;;;;;7.22;3.35;;;;;;;4.89;57.70;102290.50;5277068;28;20028;-73
2022/04/03 09:23:06;;;;;;;5.95;2.78;;;;;;;5.19;57.45;102285.31;5285938;28;20110;-74
2022/04/03 09:25:41;;;;;;;3.70;2.38;;;;;;;5.36;56.31;102277.38;5278924;28;20481;-73
2022/04/03 09:28:14;;;;;;;3.08;2.78;;;;;;;5.42;56.42;102275.66;5264273;28;20029;-73
2022/04/03 09:30:47;;;;;;;3.78;2.20;;;;;;;5.22;54.49;102276.59;5275668;28;20029;-74
2022/04/03 09:33:20;;;;;;;5.28;2.20;;;;;;;5.09;54.94;102276.66;5277457;28;20354;-74
2022/04/03 09:35:56;;;;;;;4.18;2.50;;;;;;;5.25;54.04;102268.97;5283044;28;20028;-74
2022/04/03 09:38:29;;;;;;;11.82;6.28;;;;;;;5.40;54.33;102275.88;5264664;28;20413;-75
2022/04/03 09:41:01;;;;;;;6.90;4.30;;;;;;;5.46;55.30;102276.91;5262359;28;20040;-72
2022/04/03 09:43:35;;;;;;;2.83;2.58;;;;;;;5.48;54.83;102269.28;5264239;28;20073;-71
2022/04/03 09:46:10;;;;;;;4.68;2.67;;;;;;;5.60;54.66;102266.66;5276706;28;20099;-73
2022/04/03 09:48:44;;;;;;;5.57;2.53;;;;;;;5.75;54.44;102269.09;5284024;28;20029;-70
2022/04/03 09:51:22;;;;;;;2.60;2.33;;;;;;;5.80;55.19;102272.00;5280700;28;20127;-71
2022/04/03 09:54:00;;;;;;;3.20;1.40;;;;;;;5.63;51.83;102266.22;5273077;28;20028;-72
2022/04/03 09:56:34;;;;;;;3.72;2.15;;;;;;;5.43;52.58;102267.19;5284361;28;20379;-72
2022/04/03 09:59:07;;;;;;;2.47;1.70;;;;;;;5.44;52.64;102259.75;5284642;28;20508;-69
2022/04/03 10:01:41;;;;;;;4.68;1.73;;;;;;;5.65;52.39;102262.19;5283458;28;20029;-70
2022/04/03 10:04:16;;;;;;;38.05;22.63;;;;;;;5.81;51.04;102248.94;5283386;28;20020;-71
2022/04/03 10:06:48;;;;;;;6.65;3.20;;;;;;;6.05;51.26;102245.34;5285087;28;20029;-71
2022/04/03 10:09:20;;;;;;;4.03;2.08;;;;;;;6.07;51.09;102245.97;5283182;28;20029;-69
2022/04/03 10:11:51;;;;;;;4.88;2.08;;;;;;;6.37;50.41;102238.94;5266618;28;20115;-71
2022/04/03 10:14:24;;;;;;;7.22;4.95;;;;;;;6.24;48.46;102245.44;5268916;28;20167;-70
2022/04/03 10:16:56;;;;;;;1.80;1.60;;;;;;;6.19;49.40;102237.84;5265642;28;20021;-73
2022/04/03 10:19:27;;;;;;;1.75;1.52;;;;;;;6.19;49.23;102237.84;5263695;28;20358;-74
2022/04/03 10:22:01;;;;;;;4.45;2.03;;;;;;;6.28;50.16;102238.38;5275506;28;20025;-74
2022/04/03 10:24:35;;;;;;;2.25;1.80;;;;;;;6.16;50.40;102232.78;5267166;28;20103;-73
2022/04/03 10:27:15;;;;;;;5.25;3.20;;;;;;;6.26;48.99;102221.22;5276846;28;20033;-74
2022/04/03 10:29:48;;;;;;;2.45;1.48;;;;;;;6.18;48.03;102230.63;5273724;28;20037;-73
2022/04/03 10:32:27;;;;;;;2.78;1.70;;;;;;;6.14;49.16;102226.66;5275055;28;20025;-73
2022/04/03 10:35:05;;;;;;;2.53;1.65;;;;;;;6.22;49.71;102226.34;5266297;28;20465;-73
2022/04/03 10:37:41;;;;;;;2.65;1.88;;;;;;;6.29;50.16;102220.78;5270556;28;20057;-71
2022/04/03 10:40:16;;;;;;;5.43;1.88;;;;;;;6.53;49.09;102225.38;5263073;28;20503;-72
2022/04/03 10:42:56;;;;;;;86.53;57.33;;;;;;;6.58;49.22;102221.13;5269718;28;20040;-71
2022/04/03 10:45:41;;;;;;;5.18;3.70;;;;;;;6.71;46.90;102230.06;5268571;28;20387;-71
2022/04/03 10:48:23;;;;;;;2.90;1.80;;;;;;;6.58;46.20;102218.34;5277883;28;20028;-71
2022/04/03 10:50:56;;;;;;;5.15;1.60;;;;;;;6.41;46.84;102220.88;5263941;28;20484;-72
2022/04/03 10:53:32;;;;;;;9.05;7.55;;;;;;;6.35;47.18;102219.88;5272588;28;20387;-72
2022/04/03 10:56:10;;;;;;;5.10;2.85;;;;;;;6.28;48.98;102216.34;5283996;28;20059;-70
2022/04/03 10:58:45;;;;;;;12.30;10.18;;;;;;;6.21;49.21;102213.66;5264995;28;20503;-72
2022/04/03 11:01:33;;;;;;;2.30;1.80;;;;;;;6.23;49.61;102221.69;5275954;28;20024;-72
2022/04/03 11:04:10;;;;;;;3.38;2.20;;;;;;;6.21;50.36;102210.03;5283451;28;20430;-72
2022/04/03 11:06:45;;;;;;;2.83;1.98;;;;;;;6.32;50.31;102210.16;5282924;28;20046;-71
2022/04/03 11:09:24;;;;;;;3.28;2.00;;;;;;;6.27;51.18;102209.16;5282949;28;20146;-72
2022/04/03 11:11:58;;;;;;;2.05;1.85;;;;;;;6.37;50.62;102197.59;5275786;28;20029;-72
2022/04/03 11:14:51;;;;;;;3.28;2.00;;;;;;;6.25;49.35;102206.59;5262494;28;20413;-71
2022/04/03 11:17:49;;;;;;;3.38;1.85;;;;;;;6.42;49.36;102208.78;5273665;28;20064;-72
2022/04/03 11:20:36;;;;;;;18.67;12.93;;;;;;;6.52;49.11;102198.06;5282305;28;20017;-72
2022/04/03 11:23:11;;;;;;;5.55;4.15;;;;;;;6.62;48.19;102200.25;5283167;28;20397;-72
2022/04/03 11:25:43;;;;;;;4.05;2.00;;;;;;;6.66;47.82;102193.22;5282037;28;20104;-72
2022/04/03 11:28:16;;;;;;;6.35;1.90;;;;;;;6.70;48.46;102189.78;5261132;28;20104;-72
2022/04/03 11:30:49;;;;;;;4.28;2.60;;;;;;;6.70;47.91;102183.44;5261900;28;20419;-72
2022/04/03 11:33:21;;;;;;;6.70;2.13;;;;;;;6.60;47.50;102188.66;5261554;28;20032;-74
2022/04/03 11:35:53;;;;;;;2.28;1.70;;;;;;;6.43;48.03;102180.97;5262662;28;20024;-72
2022/04/03 11:38:36;;;;;;;5.35;2.40;;;;;;;6.53;49.00;102180.44;5262036;28;20428;-74
2022/04/03 11:41:35;;;;;;;2.92;2.05;;;;;;;6.49;49.22;102177.31;5260638;28;20020;-73
2022/04/03 11:44:11;;;;;;;3.13;2.20;;;;;;;6.55;49.91;102180.22;5280113;28;20029;-73
2022/04/03 11:46:45;;;;;;;6.78;5.90;;;;;;;6.62;49.75;102175.47;5262013;28;20025;-73
2022/04/03 11:49:21;;;;;;;3.40;2.65;;;;;;;6.53;50.16;102173.00;5266697;28;20035;-73
2022/04/03 11:51:54;;;;;;;3.45;2.65;;;;;;;6.61;50.37;102177.38;5265477;28;20041;-72
2022/04/03 11:54:25;;;;;;;2.75;2.50;;;;;;;6.66;50.36;102172.00;5273832;28;20443;-73
2022/04/03 11:57:05;;;;;;;13.30;9.18;;;;;;;6.73;49.89;102182.97;5262499;28;20085;-73
2022/04/03 11:59:39;;;;;;;19.90;16.90;;;;;;;6.69;49.69;102173.47;5265175;28;20472;-73
2022/04/03 12:02:12;;;;;;;4.18;1.92;;;;;;;6.59;48.90;102175.91;5261429;28;20445;-74
2022/04/03 12:04:44;;;;;;;3.42;1.70;;;;;;;6.58;48.51;102169.56;5263754;28;20057;-74
2022/04/03 12:07:16;;;;;;;4.03;1.98;;;;;;;6.65;48.48;102175.03;5265793;28;20027;-71
2022/04/03 12:09:48;;;;;;;4.20;2.03;;;;;;;6.78;48.46;102177.59;5273617;28;20033;-69
2022/04/03 12:12:24;;;;;;;4.43;1.80;;;;;;;6.73;49.29;102177.47;5261855;28;20124;-74
2022/04/03 12:14:57;;;;;;;5.63;2.10;;;;;;;6.75;49.19;102176.16;5262329;28;20384;-75
2022/04/03 12:17:29;;;;;;;2.97;1.95;;;;;;;6.88;49.63;102177.06;5261347;28;20357;-74
2022/04/03 12:20:00;;;;;;;3.38;2.80;;;;;;;6.78;49.85;102177.59;5261438;28;20044;-74
2022/04/03 12:22:31;;;;;;;4.75;1.98;;;;;;;6.67;50.05;102168.19;5267187;28;20032;-74
2022/04/03 12:25:05;;;;;;;3.97;2.03;;;;;;;6.64;50.99;102179.66;5272113;28;20032;-76
2022/04/03 12:27:37;;;;;;;5.75;2.10;;;;;;;6.79;50.82;102171.00;5262970;28;20029;-76
2022/04/03 12:30:09;;;;;;;31.42;25.00;;;;;;;7.10;51.14;102169.94;5281194;28;20203;-74
2022/04/03 12:32:44;;;;;;;4.28;2.42;;;;;;;7.09;50.51;102170.19;5282850;28;20349;-73
2022/04/03 12:35:15;;;;;;;3.90;2.20;;;;;;;7.17;50.37;102156.06;5282603;28;20069;-74
2022/04/03 12:37:46;;;;;;;4.47;2.10;;;;;;;7.45;50.30;102165.63;5265484;28;20127;-74
2022/04/03 12:40:18;;;;;;;3.63;2.00;;;;;;;7.62;49.13;102158.34;5265355;28;20032;-73
2022/04/03 12:42:49;;;;;;;3.15;2.38;;;;;;;7.63;48.47;102162.75;5263764;28;20029;-74
2022/04/03 12:45:22;;;;;;;2.20;2.00;;;;;;;7.48;49.15;102156.84;5275381;28;20033;-72
2022/04/03 12:47:57;;;;;;;3.00;1.95;;;;;;;7.47;48.42;102149.66;5265628;28;20025;-74
2022/04/03 12:50:41;;;;;;;5.35;2.60;;;;;;;7.53;48.08;102145.94;5265410;28;20495;-75
2022/04/03 12:53:14;;;;;;;3.85;1.80;;;;;;;7.55;48.22;102146.56;5274426;28;20417;-75
2022/04/03 12:55:51;;;;;;;6.45;2.30;;;;;;;7.49;49.02;102147.47;5267593;28;20032;-75
2022/04/03 12:58:24;;;;;;;2.50;2.10;;;;;;;7.57;49.53;102142.47;5266763;28;20400;-75
2022/04/03 13:01:15;;;;;;;2.40;2.20;;;;;;;7.93;49.03;102142.50;5275045;28;20032;-75
2022/04/03 13:03:51;;;;;;;5.47;2.50;;;;;;;8.00;48.04;102141.28;5286994;28;20016;-76
2022/04/03 13:06:33;;;;;;;3.97;2.15;;;;;;;8.07;48.17;102130.94;5274139;28;20563;-73
2022/04/03 13:09:07;;;;;;;3.10;2.30;;;;;;;8.14;48.72;102128.06;5265507;28;20037;-73
2022/04/03 13:11:40;;;;;;;4.13;2.45;;;;;;;8.06;48.42;102122.91;5275892;28;20051;-75
2022/04/03 13:14:35;;;;;;;2.70;2.50;;;;;;;7.83;48.95;102123.75;5282839;28;20020;-74
2022/04/03 13:17:12;;;;;;;4.45;2.65;;;;;;;7.81;49.84;102118.47;5277574;28;20111;-75
2022/04/03 13:19:43;;;;;;;5.03;3.13;;;;;;;7.84;50.56;102119.91;5264487;28;20036;-75
2022/04/03 13:22:16;;;;;;;5.35;3.40;;;;;;;7.82;51.31;102117.41;5264796;28;20028;-76
2022/04/03 13:24:47;;;;;;;5.18;3.33;;;;;;;7.95;50.90;102120.97;5265201;28;20087;-74
2022/04/03 13:27:18;;;;;;;5.05;3.30;;;;;;;7.75;51.19;102116.69;5264429;28;20025;-75
2022/04/03 13:29:50;;;;;;;3.58;3.28;;;;;;;7.48;50.77;102118.22;5283833;28;20032;-74
2022/04/03 13:32:21;;;;;;;4.00;3.70;;;;;;;7.28;52.04;102119.34;5281564;28;20033;-76
2022/04/03 13:34:52;;;;;;;5.70;3.33;;;;;;;7.36;52.29;102121.81;5274675;28;20028;-75
2022/04/03 13:37:24;;;;;;;3.78;3.30;;;;;;;7.24;53.71;102131.13;5275109;28;20033;-76
2022/04/03 13:39:57;;;;;;;2.95;2.10;;;;;;;7.04;55.79;102129.50;5265761;28;20082;-77
2022/04/03 13:42:28;;;;;;;3.83;2.08;;;;;;;6.72;57.62;102131.63;5266071;28;20024;-76
2022/04/03 13:45:00;;;;;;;14.75;11.15;;;;;;;6.62;59.01;102129.47;5278048;28;20025;-74
2022/04/03 13:47:31;;;;;;;9.80;6.78;;;;;;;6.41;59.91;102136.28;5280214;28;20094;-74
2022/04/03 13:50:03;;;;;;;12.32;10.10;;;;;;;6.38;60.02;102124.88;5274270;28;20027;-75
2022/04/03 13:52:35;;;;;;;2.78;1.95;;;;;;;6.41;60.21;102130.75;5281959;28;20104;-75
2022/04/03 13:55:07;;;;;;;1.85;1.40;;;;;;;6.41;58.82;102124.41;5281389;28;20025;-75
2022/04/03 13:57:38;;;;;;;2.03;1.80;;;;;;;6.40;57.89;102126.34;5268011;28;20107;-75
2022/04/03 14:00:10;;;;;;;9.63;6.13;;;;;;;6.50;56.50;102118.34;5280241;28;20491;-76
2022/04/03 14:02:43;;;;;;;2.70;1.50;;;;;;;6.40;55.85;102118.06;5285510;28;20414;-76
2022/04/03 14:05:14;;;;;;;2.22;1.20;;;;;;;6.42;55.94;102104.91;5286935;28;20471;-76
2022/04/03 14:07:45;;;;;;;2.42;1.40;;;;;;;6.37;56.78;102101.16;5267920;28;20033;-76
2022/04/03 14:10:17;;;;;;;4.80;1.70;;;;;;;6.45;57.21;102100.84;5283882;28;20029;-75
2022/04/03 14:12:49;;;;;;;3.45;1.92;;;;;;;6.43;57.32;102097.47;5284581;28;20021;-77
2022/04/03 14:15:20;;;;;;;2.92;1.65;;;;;;;6.53;57.21;102095.84;5283834;28;20090;-76
2022/04/03 14:17:51;;;;;;;3.95;2.17;;;;;;;6.57;57.59;102092.63;5283326;28;20180;-76
2022/04/03 14:20:23;;;;;;;3.85;1.83;;;;;;;6.57;58.25;102098.13;5284697;28;20032;-75
2022/04/03 14:22:54;;;;;;;5.28;2.30;;;;;;;6.41;61.08;102092.19;5282537;28;20025;-75
2022/04/03 14:25:26;;;;;;;4.95;2.83;;;;;;;6.39;62.72;102091.59;5279108;28;20029;-75
2022/04/03 14:27:57;;;;;;;4.25;2.67;;;;;;;6.29;64.36;102100.41;5263687;28;20024;-76
2022/04/03 14:30:29;;;;;;;5.40;3.30;;;;;;;6.18;64.76;102098.41;5263338;28;20540;-75
2022/04/03 14:33:00;;;;;;;6.55;4.68;;;;;;;6.20;65.26;102095.41;5263527;28;20438;-75
2022/04/03 14:35:31;;;;;;;5.68;2.35;;;;;;;6.18;64.84;102086.53;5263904;28;20028;-76
2022/04/03 14:38:04;;;;;;;8.80;3.58;;;;;;;6.17;64.87;102087.63;5262791;28;20033;-76
2022/04/03 14:40:35;;;;;;;4.15;1.98;;;;;;;6.18;64.77;102086.53;5266667;28;20081;-76
2022/04/03 14:43:09;;;;;;;3.85;2.22;;;;;;;6.17;64.71;102084.88;5265221;28;20468;-76
2022/04/03 14:45:41;;;;;;;3.30;2.33;;;;;;;6.10;64.92;102082.19;5263365;28;20065;-76
2022/04/03 14:48:12;;;;;;;4.93;2.42;;;;;;;6.13;65.94;102089.13;5272833;28;20120;-75
2022/04/03 14:50:44;;;;;;;3.40;2.58;;;;;;;6.03;66.01;102085.03;5283242;28;20411;-75
2022/04/03 14:53:17;;;;;;;2.35;2.10;;;;;;;5.79;65.26;102074.88;5283797;28;20024;-76
2022/04/03 14:55:48;;;;;;;5.13;2.33;;;;;;;5.72;65.01;102074.09;5284035;28;20024;-75
2022/04/03 14:58:20;;;;;;;3.78;2.70;;;;;;;5.73;64.89;102076.63;5270061;28;20052;-75
2022/04/03 15:00:52;;;;;;;3.20;2.83;;;;;;;5.68;65.49;102072.88;5267191;28;20035;-75
2022/04/03 15:03:24;;;;;;;1.95;1.77;;;;;;;5.84;64.96;102072.28;5263239;28;20052;-76
2022/04/03 15:05:55;;;;;;;3.45;1.98;;;;;;;5.87;64.79;102069.06;5262115;28;20057;-77
2022/04/03 15:08:27;;;;;;;3.92;1.88;;;;;;;6.08;64.18;102071.41;5261841;28;20041;-75
2022/04/03 15:10:58;;;;;;;3.92;2.00;;;;;;;6.14;62.76;102064.13;5271269;28;20097;-75
2022/04/03 15:13:32;;;;;;;2.78;1.80;;;;;;;6.27;62.81;102065.88;5282915;28;20032;-76
2022/04/03 15:16:06;;;;;;;3.33;1.77;;;;;;;6.46;61.92;102064.75;5265372;28;20044;-75
2022/04/03 15:18:39;;;;;;;1.58;1.42;;;;;;;6.56;61.02;102060.63;5261770;28;20033;-75
2022/04/03 15:21:11;;;;;;;17.63;11.57;;;;;;;6.56;61.21;102055.94;5263540;28;20140;-75
2022/04/03 15:23:43;;;;;;;3.75;2.67;;;;;;;6.78;60.88;102052.69;5261711;28;20025;-75
2022/04/03 15:26:14;;;;;;;3.65;2.00;;;;;;;6.90;60.32;102054.41;5261301;28;20405;-76
2022/04/03 15:28:47;;;;;;;2.15;1.85;;;;;;;6.95;59.44;102053.66;5262874;28;20111;-74
2022/04/03 15:31:18;;;;;;;4.47;2.05;;;;;;;7.13;59.80;102058.28;5266566;28;20031;-75
2022/04/03 15:33:52;;;;;;;4.75;1.98;;;;;;;7.19;59.46;102049.06;5273940;28;20021;-76
2022/04/03 15:36:24;;;;;;;2.30;1.70;;;;;;;7.24;58.88;102046.44;5262383;28;20029;-76
2022/04/03 15:39:01;;;;;;;5.18;2.20;;;;;;;7.32;58.98;102043.31;5262253;28;20035;-76
2022/04/03 15:41:33;;;;;;;4.05;2.40;;;;;;;7.43;57.91;102049.06;5260958;28;20025;-76
2022/04/03 15:44:04;;;;;;;2.72;1.95;;;;;;;7.43;57.39;102049.06;5262088;28;20504;-76
2022/04/03 15:46:36;;;;;;;3.20;2.10;;;;;;;7.31;57.41;102036.13;5261784;28;20025;-75
2022/04/03 15:49:07;;;;;;;4.68;2.03;;;;;;;7.21;57.27;102038.63;5268645;28;20025;-75
2022/04/03 15:51:45;;;;;;;2.30;2.10;;;;;;;7.08;57.97;102036.94;5277351;28;20108;-76
2022/04/03 15:54:18;;;;;;;2.35;2.10;;;;;;;7.15;57.80;102039.56;5282371;28;20017;-76
2022/04/03 15:56:50;;;;;;;4.32;2.30;;;;;;;7.08;57.69;102030.56;5265020;28;20373;-77
2022/04/03 15:59:21;;;;;;;3.55;2.65;;;;;;;7.01;57.81;102035.34;5262270;28;20032;-77
2022/04/03 16:01:53;;;;;;;4.47;2.45;;;;;;;6.73;58.10;102025.81;5261585;28;20021;-77
2022/04/03 16:04:24;;;;;;;3.60;2.70;;;;;;;6.82;58.49;102027.13;5262114;28;20109;-77
2022/04/03 16:06:56;;;;;;;5.15;2.45;;;;;;;6.81;58.22;102022.72;5278022;28;20191;-72
2022/04/03 16:09:27;;;;;;;3.97;2.20;;;;;;;6.81;58.71;102019.97;5261086;28;20033;-78
2022/04/03 16:11:58;;;;;;;3.95;2.05;;;;;;;6.81;58.68;102024.63;5262199;28;20025;-76
2022/04/03 16:14:29;;;;;;;2.92;2.45;;;;;;;6.97;58.65;102019.25;5261330;28;20021;-77
2022/04/03 16:17:01;;;;;;;3.58;2.58;;;;;;;7.16;58.04;102027.47;5261908;28;20029;-78
2022/04/03 16:19:32;;;;;;;3.35;2.22;;;;;;;7.47;57.87;102028.22;5269179;28;20039;-78
2022/04/03 16:22:03;;;;;;;3.90;2.42;;;;;;;7.50;57.00;102027.72;5266623;28;20043;-76
2022/04/03 16:24:35;;;;;;;3.20;2.58;;;;;;;7.57;56.61;102028.44;5273921;28;20364;-76
2022/04/03 16:27:06;;;;;;;4.65;2.30;;;;;;;7.44;56.61;102024.00;5265773;28;20496;-76
2022/04/03 16:29:37;;;;;;;2.78;2.33;;;;;;;7.34;56.89;102013.56;5265399;28;20465;-74
2022/04/03 16:32:11;;;;;;;3.50;2.30;;;;;;;7.19;57.18;102015.94;5265667;28;20173;-73
2022/04/03 16:34:43;;;;;;;4.90;2.25;;;;;;;7.01;57.32;102016.06;5265655;28;20028;-75
2022/04/03 16:37:15;;;;;;;2.58;1.95;;;;;;;7.15;57.74;102020.25;5265786;28;20070;-72
2022/04/03 16:39:47;;;;;;;6.30;2.80;;;;;;;7.17;57.67;102016.19;5274182;28;20157;-73
2022/04/03 16:42:18;;;;;;;5.28;2.55;;;;;;;7.08;58.25;102014.00;5283502;28;20027;-76
2022/04/03 16:44:50;;;;;;;2.78;2.47;;;;;;;7.18;58.36;102015.13;5285200;28;20032;-74
2022/04/03 16:47:21;;;;;;;3.03;2.60;;;;;;;7.13;59.17;102020.50;5266644;28;20496;-72
2022/04/03 16:49:53;;;;;;;3.47;2.45;;;;;;;7.14;59.08;102018.59;5264555;28;20028;-73
2022/04/03 16:52:24;;;;;;;5.47;3.00;;;;;;;6.85;59.37;102015.66;5266062;28;20439;-75
2022/04/03 16:54:57;;;;;;;3.38;2.80;;;;;;;6.87;61.11;102019.00;5265668;28;20028;-74
2022/04/03 16:57:28;;;;;;;3.22;2.70;;;;;;;6.89;61.86;102016.84;5265559;28;20044;-75
2022/04/03 17:00:00;;;;;;;3.47;3.17;;;;;;;6.76;63.59;102025.34;5282901;28;20024;-75
2022/04/03 17:02:31;;;;;;;6.75;4.22;;;;;;;7.07;68.08;102032.47;5271729;28;20499;-73
2022/04/03 17:05:04;;;;;;;5.35;2.80;;;;;;;6.84;63.60;102030.50;5274440;28;20036;-75
2022/04/03 17:07:36;;;;;;;4.47;3.17;;;;;;;6.83;63.97;102020.56;5265322;28;20033;-76
2022/04/03 17:10:12;;;;;;;4.97;2.90;;;;;;;6.81;64.16;102019.97;5275494;28;20503;-75
2022/04/03 17:12:43;;;;;;;3.40;2.30;;;;;;;6.83;63.46;102015.06;5269641;28;20364;-75
2022/04/03 17:15:14;;;;;;;3.88;2.55;;;;;;;6.97;63.98;102012.91;5279713;28;20031;-74
2022/04/03 17:17:46;;;;;;;4.45;2.45;;;;;;;6.91;63.25;102014.69;5263922;28;20539;-75
2022/04/03 17:20:19;;;;;;;3.05;2.35;;;;;;;6.88;61.94;102009.66;5265220;28;20029;-75
2022/04/03 17:22:50;;;;;;;3.63;2.33;;;;;;;6.84;62.75;102008.44;5265169;28;20099;-74
2022/04/03 17:25:22;;;;;;;3.35;3.05;;;;;;;6.77;61.99;102018.72;5272871;28;20071;-75
2022/04/03 17:27:53;;;;;;;3.17;2.88;;;;;;;6.84;62.83;102013.97;5280645;28;20037;-75
2022/04/03 17:30:24;;;;;;;4.43;2.83;;;;;;;6.78;61.10;102023.19;5279285;28;20029;-75
